createdAt,value
2018-09-25T00:01:57.014Z,100401.06
2018-09-25T00:04:30.155Z,100396.31
2018-09-25T00:07:03.593Z,100397.65
2018-09-25T00:09:37.491Z,100395.72
2018-09-25T00:12:11.021Z,100399.95
2018-09-25T00:14:44.393Z,100407.45
2018-09-25T00:17:17.965Z,100411.75
2018-09-25T00:19:50.961Z,100408.51
2018-09-25T00:22:24.017Z,100384.34
2018-09-25T00:24:57.192Z,100401.97
2018-09-25T00:27:30.698Z,100406.86
2018-09-25T00:30:04.554Z,100402.28
2018-09-25T00:32:37.885Z,100404.19
2018-09-25T00:35:11.573Z,100361.52
2018-09-25T00:37:45.026Z,100405.98
2018-09-25T00:40:18.613Z,100405.23
2018-09-25T00:42:52.179Z,100411.64
2018-09-25T00:45:26.233Z,100412.97
2018-09-25T00:47:59.643Z,100409.76
2018-09-25T00:50:33.369Z,100403.62
2018-09-25T00:53:07.222Z,100404.87
2018-09-25T00:55:41.204Z,100401.73
2018-09-25T00:58:15.586Z,100394.55
2018-09-25T01:00:49.622Z,100396.40
2018-09-25T01:03:23.310Z,100388.78
2018-09-25T01:05:56.750Z,100389.41
2018-09-25T01:08:30.587Z,100396.23
2018-09-25T03:56:26.822Z,100427.57
2018-09-25T03:59:00.602Z,100430.69
2018-09-25T04:01:33.971Z,100424.30
2018-09-25T04:04:07.005Z,100432.63
2018-09-25T04:06:39.956Z,100435.36
2018-09-25T04:09:13.857Z,100434.25
2018-09-25T04:11:47.447Z,100435.45
2018-09-25T04:14:21.196Z,100442.98
2018-09-25T04:16:54.587Z,100440.48
2018-09-25T04:19:28.398Z,100444.64
2018-09-25T04:22:01.970Z,100444.33
2018-09-25T04:27:08.405Z,100455.48
2018-09-25T04:29:41.905Z,100456.50
2018-09-25T04:32:15.625Z,100463.50
2018-09-25T04:34:49.326Z,100453.61
2018-09-25T04:37:22.627Z,100458.16
2018-09-25T04:39:56.484Z,100458.38
2018-09-25T04:42:29.946Z,100461.91
2018-09-25T04:45:03.601Z,100465.50
2018-09-25T04:50:10.766Z,100478.31
2018-09-25T04:52:44.434Z,100478.63
2018-09-25T04:55:18.182Z,100481.81
2018-09-25T04:57:51.623Z,100483.97
2018-09-25T05:00:25.542Z,100479.65
2018-09-25T05:02:59.030Z,100482.77
2018-09-25T05:05:32.323Z,100485.75
2018-09-25T05:08:05.930Z,100454.76
2018-09-25T05:10:39.738Z,100491.09
2018-09-25T05:13:13.610Z,100498.05
2018-09-25T05:15:47.398Z,100504.13
2018-09-25T05:18:21.005Z,100505.45
2018-09-25T05:20:54.010Z,100509.78
2018-09-25T05:23:27.221Z,100504.89
2018-09-25T05:26:00.886Z,100505.94
2018-09-25T05:28:34.542Z,100506.95
2018-09-25T05:31:08.385Z,100509.02
2018-09-25T05:33:42.057Z,100510.23
2018-09-25T05:36:16.343Z,100512.45
2018-09-25T05:38:49.898Z,100514.91
2018-09-25T05:41:23.628Z,100513.41
2018-09-25T05:44:58.710Z,100521.57
2018-09-25T05:47:32.597Z,100524.00
2018-09-25T05:50:06.531Z,100523.13
2018-09-25T05:52:40.195Z,100525.02
2018-09-25T05:55:13.625Z,100519.84
2018-09-25T05:57:47.490Z,100526.07
2018-09-25T06:00:21.234Z,100527.84
2018-09-25T06:02:54.670Z,100534.66
2018-09-25T06:05:28.204Z,100532.36
2018-09-25T06:08:01.722Z,100539.65
2018-09-25T06:10:35.562Z,100541.49
2018-09-25T06:13:09.374Z,100534.14
2018-09-25T06:15:43.063Z,100542.08
2018-09-25T06:18:16.467Z,100541.56
2018-09-25T06:20:50.319Z,100527.22
2018-09-25T06:23:24.019Z,100541.71
2018-09-25T06:25:57.010Z,100543.77
2018-09-25T06:28:30.436Z,100544.41
2018-09-25T06:31:03.883Z,100544.95
2018-09-25T06:33:37.573Z,100549.97
2018-09-25T06:36:11.326Z,100550.11
2018-09-25T06:38:44.752Z,100553.17
2018-09-25T06:41:18.305Z,100550.11
2018-09-25T06:43:51.855Z,100558.33
2018-09-25T06:46:25.477Z,100563.16
2018-09-25T06:48:59.045Z,100573.89
2018-09-25T06:51:32.061Z,100579.84
2018-09-25T06:54:05.342Z,100574.72
2018-09-25T06:56:38.833Z,100584.96
2018-09-25T06:59:12.745Z,100584.34
2018-09-25T07:01:47.010Z,100586.59
2018-09-25T07:04:20.042Z,100592.69
2018-09-25T07:06:53.661Z,100596.69
2018-09-25T07:09:27.374Z,100587.16
2018-09-25T07:12:00.700Z,100588.21
2018-09-25T07:14:34.343Z,100592.90
2018-09-25T07:17:07.918Z,100580.17
2018-09-25T07:19:41.630Z,100586.41
2018-09-25T07:22:15.176Z,100583.20
2018-09-25T07:24:48.709Z,100588.94
2018-09-25T07:27:22.342Z,100587.97
2018-09-25T07:29:55.844Z,100589.91
2018-09-25T07:32:29.494Z,100592.33
2018-09-25T07:35:03.041Z,100595.68
2018-09-25T07:40:34.180Z,100590.63
2018-09-25T07:43:07.598Z,100593.30
2018-09-25T07:45:41.043Z,100595.75
2018-09-25T07:48:14.397Z,100593.58
2018-09-25T07:50:48.397Z,100593.30
2018-09-25T07:53:22.185Z,100589.51
2018-09-25T07:55:55.620Z,100586.27
2018-09-25T07:58:29.217Z,100586.98
2018-09-25T08:01:02.774Z,100589.87
2018-09-25T08:03:36.453Z,100587.16
2018-09-25T08:06:10.165Z,100587.73
2018-09-25T08:08:43.734Z,100588.10
2018-09-25T08:11:17.449Z,100591.30
2018-09-25T08:13:51.020Z,100593.54
2018-09-25T08:16:24.062Z,100565.20
2018-09-25T08:18:57.726Z,100589.39
2018-09-25T08:21:31.509Z,100597.40
2018-09-25T08:24:05.062Z,100592.64
2018-09-25T08:26:38.757Z,100590.73
2018-09-25T08:29:12.420Z,100591.62
2018-09-25T08:31:46.159Z,100586.14
2018-09-25T08:34:19.618Z,100593.86
2018-09-25T08:36:53.032Z,100595.48
2018-09-25T08:39:26.361Z,100592.95
2018-09-25T08:41:59.916Z,100595.05
2018-09-25T08:44:33.634Z,100590.15
2018-09-25T08:47:07.203Z,100584.52
2018-09-25T08:49:40.642Z,100586.39
2018-09-25T08:52:14.306Z,100586.72
2018-09-25T08:54:47.956Z,100588.05
2018-09-25T08:57:21.631Z,100590.61
2018-09-25T08:59:55.523Z,100586.52
2018-09-25T09:02:28.888Z,100589.49
2018-09-25T09:05:02.419Z,100587.33
2018-09-25T09:07:35.957Z,100593.70
2018-09-25T09:10:09.701Z,100590.46
2018-09-25T09:12:43.421Z,100586.83
2018-09-25T09:15:17.046Z,100579.91
2018-09-25T09:17:50.420Z,100578.71
2018-09-25T09:20:24.013Z,100600.17
2018-09-25T09:22:57.301Z,100603.73
2018-09-25T09:25:30.784Z,100601.72
2018-09-25T09:28:04.505Z,100603.88
2018-09-25T09:30:38.806Z,100605.28
2018-09-25T09:33:12.629Z,100601.81
2018-09-25T09:35:46.229Z,100604.27
2018-09-25T09:38:19.721Z,100592.25
2018-09-25T09:40:53.649Z,100597.59
2018-09-25T09:43:27.542Z,100596.16
2018-09-25T09:46:01.304Z,100604.99
2018-09-25T09:48:34.705Z,100594.91
2018-09-25T09:51:08.315Z,100593.06
2018-09-25T09:53:41.674Z,100586.45
2018-09-25T09:56:15.264Z,100585.87
2018-09-25T09:58:48.609Z,100590.46
2018-09-25T10:01:22.161Z,100594.03
2018-09-25T10:03:55.618Z,100588.53
2018-09-25T10:06:29.313Z,100587.49
2018-09-25T10:09:02.975Z,100579.49
2018-09-25T10:11:36.050Z,100581.12
2018-09-25T10:14:09.753Z,100582.30
2018-09-25T10:16:43.610Z,100578.97
2018-09-25T10:19:17.381Z,100582.59
2018-09-25T10:21:50.878Z,100580.53
2018-09-25T10:24:24.729Z,100576.23
2018-09-25T10:26:58.445Z,100576.35
2018-09-25T10:29:32.268Z,100575.34
2018-09-25T10:32:05.874Z,100575.91
2018-09-25T10:34:39.317Z,100570.06
2018-09-25T10:37:12.797Z,100572.95
2018-09-25T10:39:46.305Z,100578.16
2018-09-25T10:42:20.302Z,100563.02
2018-09-25T10:44:53.706Z,100572.82
2018-09-25T10:47:27.327Z,100569.39
2018-09-25T10:50:00.896Z,100573.40
2018-09-25T10:52:34.766Z,100561.09
2018-09-25T10:55:08.545Z,100574.48
2018-09-25T10:57:41.949Z,100560.57
2018-09-25T11:00:15.090Z,100561.36
2018-09-25T11:02:48.921Z,100554.11
2018-09-25T11:05:22.634Z,100556.49
2018-09-25T11:07:56.538Z,100553.94
2018-09-25T11:10:30.443Z,100549.82
2018-09-25T11:13:04.060Z,100543.37
2018-09-25T11:15:37.772Z,100540.02
2018-09-25T11:18:11.783Z,100536.45
2018-09-25T11:20:45.532Z,100537.57
2018-09-25T11:23:19.287Z,100535.48
2018-09-25T11:25:53.318Z,100532.60
2018-09-25T11:28:27.410Z,100527.99
2018-09-25T11:31:01.082Z,100521.02
2018-09-25T11:33:34.618Z,100524.95
2018-09-25T11:36:08.314Z,100524.16
2018-09-25T11:38:41.893Z,100516.16
2018-09-25T11:41:15.114Z,100516.27
2018-09-25T11:43:48.748Z,100514.65
2018-09-25T11:46:22.594Z,100501.67
2018-09-25T11:48:56.308Z,100517.03
2018-09-25T11:51:30.053Z,100518.05
2018-09-25T11:54:03.753Z,100513.60
2018-09-25T11:56:37.617Z,100506.03
2018-09-25T11:59:11.486Z,100512.70
2018-09-25T12:01:45.410Z,100506.36
2018-09-25T12:04:19.237Z,100505.31
2018-09-25T12:06:52.646Z,100500.41
2018-09-25T12:09:26.528Z,100500.41
2018-09-25T12:12:00.454Z,100491.00
2018-09-25T12:14:33.906Z,100496.70
2018-09-25T12:17:07.557Z,100499.69
2018-09-25T12:19:41.670Z,100496.48
2018-09-25T12:22:15.441Z,100499.08
2018-09-25T12:24:49.434Z,100488.11
2018-09-25T12:27:23.219Z,100483.80
2018-09-25T12:29:57.195Z,100488.80
2018-09-25T12:32:30.629Z,100488.91
2018-09-25T12:35:04.469Z,100490.02
2018-09-25T12:37:37.933Z,100484.69
2018-09-25T12:40:11.206Z,100490.24
2018-09-25T12:42:44.833Z,100486.02
2018-09-25T12:45:18.565Z,100480.62
2018-09-25T12:47:52.075Z,100490.92
2018-09-25T12:53:14.897Z,100485.13
2018-09-25T12:55:48.473Z,100484.02
2018-09-25T12:58:21.913Z,100454.58
2018-09-25T13:00:55.574Z,100476.11
2018-09-25T13:03:29.397Z,100472.39
2018-09-25T13:06:03.199Z,100476.78
2018-09-25T13:08:36.817Z,100484.03
2018-09-25T13:11:10.585Z,100485.01
2018-09-25T13:13:44.493Z,100482.19
2018-09-25T13:16:18.352Z,100479.02
2018-09-25T13:18:52.216Z,100470.63
2018-09-25T13:21:25.956Z,100473.58
2018-09-25T13:23:59.625Z,100478.19
2018-09-25T13:26:33.606Z,100478.19
2018-09-25T13:29:07.037Z,100485.47
2018-09-25T13:31:40.541Z,100476.70
2018-09-25T13:34:13.981Z,100465.89
2018-09-25T13:36:47.437Z,100465.28
2018-09-25T13:39:21.111Z,100476.48
2018-09-25T13:41:54.785Z,100466.02
2018-09-25T13:44:28.462Z,100464.34
2018-09-25T13:47:02.522Z,100463.14
2018-09-25T13:49:36.066Z,100456.24
2018-09-25T13:52:09.365Z,100448.45
2018-09-25T13:54:43.072Z,100439.78
2018-09-25T13:57:16.593Z,100437.56
2018-09-25T13:59:50.377Z,100438.89
2018-09-25T14:02:24.069Z,100446.68
2018-09-25T14:04:57.705Z,100443.19
2018-09-25T14:07:31.419Z,100446.46
2018-09-25T14:10:05.038Z,100446.39
2018-09-25T14:12:38.313Z,100436.95
2018-09-25T14:15:11.882Z,100435.18
2018-09-25T14:17:45.643Z,100434.00
2018-09-25T14:20:19.333Z,100433.72
2018-09-25T14:22:52.878Z,100435.78
2018-09-25T14:25:26.518Z,100445.50
2018-09-25T14:28:00.383Z,100448.23
2018-09-25T14:30:33.965Z,100442.97
2018-09-25T14:33:07.641Z,100436.39
2018-09-25T14:35:41.566Z,100430.60
2018-09-25T14:38:15.317Z,100441.47
2018-09-25T14:40:48.981Z,100435.50
2018-09-25T14:43:21.972Z,100436.00
2018-09-25T14:45:55.473Z,100426.34
2018-09-25T14:48:29.324Z,100427.45
2018-09-25T14:51:03.041Z,100434.64
2018-09-25T14:53:36.253Z,100435.11
2018-09-25T14:56:09.886Z,100431.48
2018-09-25T14:58:43.590Z,100424.81
2018-09-25T15:01:17.223Z,100420.08
2018-09-25T15:03:50.770Z,100384.46
2018-09-25T15:06:24.518Z,100419.98
2018-09-25T15:08:58.199Z,100410.75
2018-09-25T15:11:31.737Z,100417.41
2018-09-25T15:14:06.064Z,100408.74
2018-09-25T15:16:41.629Z,100395.42
2018-09-25T15:19:15.358Z,100402.73
2018-09-25T15:21:49.188Z,100400.07
2018-09-25T15:24:22.351Z,100402.42
2018-09-25T15:26:56.335Z,100399.81
2018-09-25T15:29:29.933Z,100402.42
2018-09-25T15:32:03.500Z,100402.29
2018-09-25T15:34:37.307Z,100401.97
2018-09-25T15:37:10.916Z,100397.75
2018-09-25T15:39:44.614Z,100401.24
2018-09-25T15:42:18.486Z,100403.91
2018-09-25T15:44:52.542Z,100401.53
2018-09-25T15:47:26.223Z,100397.46
2018-09-25T15:49:59.622Z,100395.91
2018-09-25T15:52:33.493Z,100389.02
2018-09-25T15:55:06.905Z,100385.62
2018-09-25T15:57:40.494Z,100387.17
2018-09-25T16:00:14.315Z,100377.30
2018-09-25T16:02:47.670Z,100389.45
2018-09-25T16:05:21.610Z,100379.58
2018-09-25T16:07:55.539Z,100386.13
2018-09-25T16:10:29.301Z,100397.69
2018-09-25T16:13:02.818Z,100401.69
2018-09-25T16:15:36.626Z,100393.40
2018-09-25T16:18:10.062Z,100392.28
2018-09-25T16:20:44.190Z,100390.41
2018-09-25T16:23:18.582Z,100398.95
2018-09-25T16:25:52.341Z,100401.95
2018-09-25T16:28:25.925Z,100401.22
2018-09-25T16:30:59.849Z,100401.66
2018-09-25T16:33:33.548Z,100407.73
2018-09-25T16:36:07.466Z,100407.41
2018-09-25T16:38:41.369Z,100405.33
2018-09-25T16:41:14.804Z,100404.82
2018-09-25T16:43:48.445Z,100396.29
2018-09-25T16:46:21.949Z,100403.85
2018-09-25T16:48:55.064Z,100403.68
2018-09-25T16:51:28.413Z,100401.88
2018-09-25T16:54:02.041Z,100404.98
2018-09-25T16:56:35.750Z,100407.33
2018-09-25T16:59:09.442Z,100406.75
2018-09-25T17:01:43.296Z,100411.50
2018-09-25T17:04:16.794Z,100406.61
2018-09-25T17:06:50.585Z,100410.89
2018-09-25T17:09:24.302Z,100404.66
2018-09-25T17:11:57.813Z,100404.30
2018-09-25T17:14:31.629Z,100399.90
2018-09-25T17:17:05.308Z,100405.16
2018-09-25T17:19:38.718Z,100405.66
2018-09-25T17:22:12.564Z,100406.73
2018-09-25T17:24:46.382Z,100402.87
2018-09-25T17:27:19.790Z,100397.82
2018-09-25T17:29:53.421Z,100404.63
2018-09-25T17:32:27.310Z,100406.85
2018-09-25T17:35:00.920Z,100400.45
2018-09-25T17:37:35.399Z,100400.98
2018-09-25T17:40:09.238Z,100397.67
2018-09-25T17:42:42.714Z,100399.24
2018-09-25T17:45:16.453Z,100399.70
2018-09-25T17:47:50.218Z,100401.19
2018-09-25T17:50:23.694Z,100402.41
2018-09-25T17:52:57.578Z,100411.53
2018-09-25T17:55:31.238Z,100415.53
2018-09-25T17:58:04.705Z,100411.53
2018-09-25T18:00:38.453Z,100419.95
2018-09-25T18:03:12.605Z,100430.97
2018-09-25T18:05:46.329Z,100434.39
2018-09-25T18:08:20.030Z,100436.30
2018-09-25T18:10:53.682Z,100429.06
2018-09-25T18:13:28.677Z,100432.77
2018-09-25T18:16:02.477Z,100441.95
2018-09-25T18:18:36.581Z,100434.31
2018-09-25T18:21:10.389Z,100442.99
2018-09-25T18:23:43.845Z,100452.04
2018-09-25T18:26:17.403Z,100450.99
2018-09-25T18:28:51.216Z,100457.87
2018-09-25T18:31:25.160Z,100461.66
2018-09-25T18:33:59.047Z,100473.52
2018-09-25T18:36:32.655Z,100472.47
2018-09-25T18:39:06.462Z,100477.02
2018-09-25T18:41:40.411Z,100488.94
2018-09-25T18:44:14.184Z,100479.14
2018-09-25T18:46:47.859Z,100478.13
2018-09-25T18:49:21.521Z,100476.19
2018-09-25T18:51:55.712Z,100479.61
2018-09-25T18:54:29.301Z,100471.28
2018-09-25T18:57:02.729Z,100469.23
2018-09-25T18:59:36.524Z,100476.80
2018-09-25T19:02:10.163Z,100474.41
2018-09-25T19:04:43.698Z,100484.26
2018-09-25T19:07:17.461Z,100477.80
2018-09-25T19:09:50.881Z,100488.80
2018-09-25T19:12:24.583Z,100496.65
2018-09-25T19:14:58.291Z,100495.47
2018-09-25T19:17:31.816Z,100496.26
2018-09-25T19:20:05.526Z,100500.80
2018-09-25T19:22:39.615Z,100500.58
2018-09-25T19:25:12.962Z,100503.32
2018-09-25T19:27:46.666Z,100509.27
2018-09-25T19:30:19.970Z,100508.05
2018-09-25T19:32:53.690Z,100517.27
2018-09-25T19:35:27.456Z,100524.38
2018-09-25T19:38:04.191Z,100516.88
2018-09-25T19:40:37.782Z,100515.03
2018-09-25T19:43:11.486Z,100517.16
2018-09-25T19:45:45.420Z,100521.27
2018-09-25T19:48:19.051Z,100505.48
2018-09-25T19:50:52.804Z,100512.80
2018-09-25T19:53:26.430Z,100516.73
2018-09-25T19:55:59.940Z,100525.16
2018-09-25T19:58:33.279Z,100538.17
2018-09-25T20:01:06.881Z,100539.83
2018-09-25T20:03:40.584Z,100528.50
2018-09-25T20:06:14.034Z,100526.15
2018-09-25T20:10:27.681Z,100533.94
2018-09-25T20:13:01.643Z,100528.55
2018-09-25T20:15:35.468Z,100527.36
2018-09-25T20:18:09.164Z,100530.14
2018-09-25T20:20:42.618Z,100522.38
2018-09-25T20:23:16.643Z,100511.78
2018-09-25T20:25:50.292Z,100516.58
2018-09-25T20:28:23.921Z,100514.48
2018-09-25T20:30:57.574Z,100517.92
2018-09-25T20:33:31.313Z,100512.44
2018-09-25T20:36:30.526Z,100508.59
2018-09-25T20:39:04.422Z,100501.59
2018-09-25T20:41:38.058Z,100501.77
2018-09-25T20:44:11.857Z,100504.43
2018-09-25T20:46:45.601Z,100508.06
2018-09-25T20:49:19.434Z,100511.41
2018-09-25T20:51:52.953Z,100514.23
2018-09-25T20:54:26.610Z,100517.19
2018-09-25T20:57:00.070Z,100522.52
2018-09-25T20:59:33.813Z,100526.09
2018-09-25T21:02:07.485Z,100528.45
2018-09-25T21:04:41.171Z,100521.15
2018-09-25T21:07:14.711Z,100525.47
2018-09-25T21:09:48.626Z,100521.76
2018-09-25T21:12:22.345Z,100515.20
2018-09-25T21:14:55.830Z,100507.81
2018-09-25T21:17:29.566Z,100515.71
2018-09-25T21:20:03.353Z,100518.16
2018-09-25T21:22:36.767Z,100510.30
2018-09-25T21:25:10.521Z,100506.02
2018-09-25T21:27:44.289Z,100507.56
2018-09-25T21:30:17.735Z,100508.80
2018-09-25T21:32:51.586Z,100507.78
2018-09-25T21:35:25.757Z,100504.90
2018-09-25T21:37:59.577Z,100504.00
2018-09-25T21:40:33.217Z,100499.17
2018-09-25T21:43:06.682Z,100496.50
2018-09-25T21:45:40.429Z,100493.69
2018-09-25T21:48:14.165Z,100496.22
2018-09-25T21:50:47.737Z,100493.98
2018-09-25T21:53:21.478Z,100487.31
2018-09-25T21:55:55.396Z,100484.36
2018-09-25T21:58:29.069Z,100481.69
2018-09-25T22:01:02.844Z,100480.64
2018-09-25T22:03:36.543Z,100484.94
2018-09-25T22:08:56.689Z,100476.36
2018-09-25T22:11:30.677Z,100465.91
2018-09-25T22:16:05.714Z,100463.31
2018-09-25T22:18:39.301Z,100457.69
2018-09-25T22:21:12.806Z,100419.41
2018-09-25T22:23:46.623Z,100460.47
2018-09-25T22:26:20.753Z,100457.52
2018-09-25T22:28:54.507Z,100454.55
2018-09-25T22:31:27.974Z,100458.34
2018-09-25T22:34:01.058Z,100448.47
2018-09-25T22:36:34.166Z,100440.61
2018-09-25T22:39:07.873Z,100436.47
2018-09-25T22:41:41.637Z,100443.60
2018-09-25T22:44:15.315Z,100438.70
2018-09-25T22:46:48.741Z,100433.37
2018-09-25T22:49:22.358Z,100434.38
2018-09-25T22:51:55.961Z,100434.70
2018-09-25T22:54:28.921Z,100437.66
2018-09-25T22:57:02.614Z,100434.70
2018-09-25T22:59:36.297Z,100433.48
2018-09-25T23:02:09.719Z,100427.81
2018-09-25T23:04:43.345Z,100426.38
2018-09-25T23:07:17.297Z,100427.72
2018-09-25T23:09:50.638Z,100417.80
2018-09-25T23:12:24.581Z,100414.97
2018-09-25T23:14:58.433Z,100412.73
2018-09-25T23:17:32.194Z,100408.59
2018-09-25T23:20:05.867Z,100412.08
2018-09-25T23:22:39.602Z,100411.86
2018-09-25T23:25:13.600Z,100415.04
2018-09-25T23:27:47.421Z,100420.91
2018-09-25T23:30:21.394Z,100380.13
2018-09-25T23:32:55.301Z,100420.59
2018-09-25T23:35:29.122Z,100412.02
2018-09-25T23:38:02.769Z,100402.08
2018-09-25T23:40:37.402Z,100401.78
2018-09-25T23:43:12.633Z,100395.95
2018-09-25T23:45:46.553Z,100408.23
2018-09-25T23:48:19.301Z,100405.78
2018-09-25T23:50:57.501Z,100409.72
2018-09-25T23:53:32.881Z,100409.78
2018-09-25T23:56:06.628Z,100407.27
2018-09-25T23:58:39.334Z,100408.45
